KDLZ

Details ICAO KDLZ
Name Delaware Municipal
Region United States
Timezone America/New_York (UTC-4.0)
Plans Departing 81
Arriving 16
Stats Elevation 943 ft / 287 m (AMSL)
Location 40.279700° -83.114800°
Runways 1
Magnetic Variation 7.244° W
Sunrise 2021-09-24 11:23:23 UTC / 2021-09-24 07:23:23 Local
Sunset 2021-09-24 23:28:00 UTC / 2021-09-24 19:28:00 Local
Advertisement - Login to hide

Runways

ID Width Length Bearing (true/mag) Surface Threshold Overrun Markings Lighting
10 100 ft / 30 m 4,989 ft / 1,521 m 98.37° / 105.61° ASPHALT 0 ft / 0 m 0 ft / 0 m APP EDGE THRESHOLD REIL-OMNI
28 100 ft / 30 m 4,989 ft / 1,521 m 278.38° / 285.62° ASPHALT 0 ft / 0 m 0 ft / 0 m APP EDGE THRESHOLD REIL-OMNI

Map

Weather


0- 5 10 15 20 25 30 35+ Temperature / °C

Clouds and Precipitation
Forecast for 2021-09-25 00:00 UTC. Updated 5 hours ago

Ground ~20,000 ft ~40,000 ft Winds

METAR

KDLZ 250155Z AUTO 19003KT 10SM CLR 17/11 A3007 RMK AO2

TAF

Not found

Frequencies

Approach 125.95 MHz Columbus Approach
Unicom 122.70 MHz Delaware Unicom
Recorded 119.02 MHz AWOS 3
Warning: Do not use this data for real-world aviation or navigation. No guarantee of current accuracy is given.